Time;durP1;ratioP1;P1;durP2;ratioP2;P2;SDS_P1;SDS_P2;PMS_P1;PMS_P2;Temp;Humidity;BMP_temperature;BMP_pressure;BME280_temperature;BME280_humidity;BME280_pressure;Samples;Min_cycle;Max_cycle;Signal;HPM_P1;HPM_P2
2024/01/03 00:00:33;;;;;;;2.70;1.20;;;10.70;99.90;;;;;;5022677;28;20183;-80
2024/01/03 00:03:00;;;;;;;2.97;1.05;;;10.70;99.90;;;;;;5022303;28;20053;-81
2024/01/03 00:05:37;;;;;;;4.50;1.75;;;10.60;99.90;;;;;;4989900;28;20133;-81
2024/01/03 00:08:25;;;;;;;5.28;1.10;;;10.60;99.90;;;;;;5005472;28;20057;-80
2024/01/03 00:10:56;;;;;;;5.63;1.42;;;10.60;99.90;;;;;;5006594;28;20102;-80
2024/01/03 00:13:30;;;;;;;3.50;1.30;;;10.60;99.90;;;;;;5011537;28;20057;-81
2024/01/03 00:16:00;;;;;;;5.72;1.40;;;10.60;99.90;;;;;;5022483;28;20067;-79
2024/01/03 00:18:38;;;;;;;3.70;1.30;;;10.60;99.90;;;;;;5021907;28;20096;-80
2024/01/03 00:21:05;;;;;;;3.60;1.52;;;10.50;99.90;;;;;;5007364;28;20495;-81
2024/01/03 00:23:56;;;;;;;3.08;1.10;;;10.50;99.90;;;;;;5019225;28;20527;-80
2024/01/03 00:26:27;;;;;;;2.45;0.80;;;10.50;99.90;;;;;;5026807;28;20098;-81
2024/01/03 00:28:55;;;;;;;2.58;1.27;;;10.40;99.90;;;;;;5040352;28;20452;-81
2024/01/03 00:31:25;;;;;;;2.95;1.02;;;10.40;99.90;;;;;;5025454;28;20057;-81
2024/01/03 00:33:52;;;;;;;4.07;1.27;;;10.40;99.90;;;;;;5037390;28;20149;-81
2024/01/03 00:36:19;;;;;;;3.58;1.77;;;10.40;99.90;;;;;;4992022;28;20100;-81
2024/01/03 00:38:46;;;;;;;4.65;1.40;;;10.40;99.90;;;;;;4995325;28;20049;-81
2024/01/03 00:41:13;;;;;;;5.72;1.95;;;10.40;99.90;;;;;;5012557;28;20111;-81
2024/01/03 00:43:43;;;;;;;4.88;1.83;;;10.40;99.90;;;;;;5008589;28;20087;-81
2024/01/03 00:46:10;;;;;;;2.65;1.45;;;10.30;99.90;;;;;;5028615;28;20694;-82
2024/01/03 00:48:37;;;;;;;5.55;1.60;;;10.30;99.90;;;;;;4995867;28;20049;-81
2024/01/03 00:51:05;;;;;;;6.80;1.42;;;10.30;99.90;;;;;;4995652;28;20062;-80
2024/01/03 00:53:32;;;;;;;4.95;1.60;;;10.30;99.90;;;;;;5033476;28;20045;-81
2024/01/03 00:55:59;;;;;;;3.03;1.08;;;10.30;99.90;;;;;;5012607;28;20152;-81
2024/01/03 00:58:26;;;;;;;3.10;1.20;;;10.30;99.90;;;;;;5012382;28;20132;-81
2024/01/03 01:00:53;;;;;;;3.97;1.20;;;10.30;99.90;;;;;;4996167;28;20056;-81
2024/01/03 01:03:20;;;;;;;3.05;1.23;;;10.30;99.90;;;;;;4992393;28;20451;-82
2024/01/03 01:05:47;;;;;;;4.75;1.63;;;10.30;99.90;;;;;;5008603;28;20073;-81
2024/01/03 01:08:14;;;;;;;4.07;1.65;;;10.40;99.90;;;;;;5011087;28;20641;-81
2024/01/03 01:10:46;;;;;;;3.60;1.27;;;10.30;99.90;;;;;;5028787;28;20128;-80
2024/01/03 01:13:13;;;;;;;2.85;1.02;;;10.30;99.90;;;;;;5020164;28;20111;-81
2024/01/03 01:15:40;;;;;;;2.25;1.08;;;10.30;99.90;;;;;;5048247;28;20053;-81
2024/01/03 01:18:09;;;;;;;3.65;1.25;;;10.40;99.90;;;;;;5031658;28;20049;-80
2024/01/03 01:20:36;;;;;;;2.88;0.90;;;10.40;99.90;;;;;;5015305;28;20053;-81
2024/01/03 01:23:03;;;;;;;4.10;1.02;;;10.40;99.90;;;;;;5029561;28;20045;-81
2024/01/03 01:25:30;;;;;;;1.55;0.85;;;10.30;99.90;;;;;;4997477;28;20411;-81
2024/01/03 01:27:57;;;;;;;3.65;1.20;;;10.30;99.90;;;;;;5011146;28;20851;-81
2024/01/03 01:30:24;;;;;;;3.05;1.25;;;10.40;99.90;;;;;;5012734;28;20065;-81
2024/01/03 01:32:52;;;;;;;3.40;1.27;;;10.40;99.90;;;;;;5006983;28;20058;-81
2024/01/03 01:35:20;;;;;;;4.00;1.33;;;10.30;99.90;;;;;;5008392;28;20049;-82
2024/01/03 01:37:48;;;;;;;1.60;0.90;;;10.30;99.90;;;;;;4994120;28;20553;-81
2024/01/03 01:40:15;;;;;;;4.18;1.65;;;10.30;99.90;;;;;;4995921;28;20053;-81
2024/01/03 01:42:43;;;;;;;6.25;1.70;;;10.30;99.90;;;;;;4995034;28;20444;-81
2024/01/03 01:45:10;;;;;;;2.95;1.10;;;10.30;99.90;;;;;;5011302;28;20136;-81
2024/01/03 01:47:41;;;;;;;3.90;1.27;;;10.30;99.90;;;;;;5009515;28;20149;-81
2024/01/03 01:50:10;;;;;;;4.68;1.25;;;10.20;99.90;;;;;;4992371;28;20053;-80
2024/01/03 01:52:38;;;;;;;3.75;1.23;;;10.20;99.90;;;;;;5024657;28;20472;-81
2024/01/03 01:55:06;;;;;;;1.67;0.95;;;10.30;99.90;;;;;;5019802;28;20373;-81
2024/01/03 01:57:33;;;;;;;2.30;0.90;;;10.20;99.90;;;;;;5024955;28;20111;-81
2024/01/03 02:00:00;;;;;;;2.05;0.93;;;10.20;99.90;;;;;;5008157;28;20540;-80
2024/01/03 02:02:28;;;;;;;3.03;1.60;;;10.20;99.90;;;;;;5023666;28;20137;-80
2024/01/03 02:04:55;;;;;;;4.35;1.67;;;10.20;99.90;;;;;;5007784;28;20080;-80
2024/01/03 02:07:22;;;;;;;2.70;1.10;;;10.20;99.90;;;;;;5007764;28;20047;-80
2024/01/03 02:09:50;;;;;;;2.45;0.73;;;10.10;99.90;;;;;;5007933;28;20077;-80
2024/01/03 02:12:17;;;;;;;2.00;0.73;;;10.00;99.90;;;;;;5028024;28;20054;-81
2024/01/03 02:14:44;;;;;;;3.97;0.95;;;10.00;99.90;;;;;;4994634;28;20053;-81
2024/01/03 02:17:11;;;;;;;1.50;1.17;;;10.00;99.90;;;;;;5002789;28;20049;-80
2024/01/03 02:19:39;;;;;;;3.63;1.33;;;10.00;99.90;;;;;;5023881;28;20041;-80
2024/01/03 02:22:06;;;;;;;3.05;0.95;;;10.00;99.90;;;;;;5032493;28;20531;-81
2024/01/03 02:24:33;;;;;;;3.92;1.20;;;10.00;99.90;;;;;;5008922;28;20060;-80
2024/01/03 02:27:00;;;;;;;2.55;1.08;;;10.00;99.90;;;;;;5001731;28;20160;-80
2024/01/03 02:29:27;;;;;;;4.70;1.35;;;9.90;99.90;;;;;;4991895;28;20466;-80
2024/01/03 02:31:54;;;;;;;2.22;1.20;;;10.00;99.90;;;;;;5022279;28;20447;-81
2024/01/03 02:34:21;;;;;;;5.60;1.40;;;10.00;99.90;;;;;;5024961;28;20410;-81
2024/01/03 02:36:49;;;;;;;2.67;1.05;;;10.00;99.90;;;;;;5023689;28;20055;-80
2024/01/03 02:39:16;;;;;;;3.15;0.85;;;10.00;99.90;;;;;;5010111;28;20123;-80
2024/01/03 02:41:43;;;;;;;4.90;1.73;;;10.00;99.90;;;;;;4995100;28;20553;-80
2024/01/03 02:44:12;;;;;;;2.88;0.75;;;10.00;99.90;;;;;;5010937;28;20053;-80
2024/01/03 02:46:40;;;;;;;1.63;0.80;;;10.00;99.90;;;;;;5038756;28;20055;-80
2024/01/03 02:49:09;;;;;;;2.40;0.93;;;10.00;99.90;;;;;;5013497;28;20095;-81
2024/01/03 02:51:36;;;;;;;1.58;1.00;;;10.00;99.90;;;;;;5045642;28;20056;-81
2024/01/03 02:54:03;;;;;;;2.85;0.88;;;10.00;99.90;;;;;;5007781;28;20058;-80
2024/01/03 02:56:44;;;;;;;2.45;0.98;;;10.00;99.90;;;;;;5026011;28;20046;-82
2024/01/03 02:59:11;;;;;;;1.50;0.70;;;10.00;99.90;;;;;;5026510;28;20120;-81
2024/01/03 03:01:39;;;;;;;1.75;0.60;;;10.00;99.90;;;;;;5025805;28;20057;-81
2024/01/03 03:04:06;;;;;;;1.17;0.70;;;10.00;99.90;;;;;;5011877;28;20656;-80
2024/01/03 03:06:34;;;;;;;3.05;1.15;;;10.00;99.90;;;;;;4992833;28;20061;-80
2024/01/03 03:09:01;;;;;;;2.83;1.23;;;10.00;99.90;;;;;;5025058;28;20131;-80
2024/01/03 03:11:42;;;;;;;3.33;0.90;;;10.00;99.90;;;;;;4996284;28;20060;-80
2024/01/03 03:14:10;;;;;;;2.15;1.10;;;10.00;99.90;;;;;;5008972;28;20091;-80
2024/01/03 03:16:37;;;;;;;3.20;0.60;;;10.00;99.90;;;;;;4993518;28;20055;-80
2024/01/03 03:19:05;;;;;;;2.42;1.10;;;10.00;99.90;;;;;;5008987;28;20046;-81
2024/01/03 03:21:33;;;;;;;2.63;1.30;;;10.00;99.90;;;;;;5008629;28;20153;-80
2024/01/03 03:24:01;;;;;;;3.25;1.08;;;10.00;99.90;;;;;;4992107;28;20065;-80
2024/01/03 03:26:28;;;;;;;3.35;1.15;;;10.00;99.90;;;;;;5025437;28;20057;-80
2024/01/03 03:28:55;;;;;;;2.92;1.02;;;10.10;99.90;;;;;;4992290;28;20073;-80
2024/01/03 03:31:22;;;;;;;2.05;0.60;;;10.10;99.90;;;;;;4992618;28;20143;-81
2024/01/03 03:33:49;;;;;;;3.25;1.00;;;10.10;99.90;;;;;;5008714;28;20049;-79
2024/01/03 03:36:17;;;;;;;1.60;0.80;;;10.10;99.90;;;;;;5008850;28;20095;-80
2024/01/03 03:38:44;;;;;;;4.43;0.90;;;10.10;99.90;;;;;;5017560;28;20463;-81
2024/01/03 03:41:12;;;;;;;3.22;1.05;;;10.10;99.90;;;;;;5027645;28;20049;-80
2024/01/03 03:43:39;;;;;;;2.95;0.70;;;10.10;99.90;;;;;;4998119;28;20057;-81
2024/01/03 03:46:10;;;;;;;1.80;0.50;;;10.10;99.90;;;;;;5007424;28;20057;-80
2024/01/03 03:48:37;;;;;;;2.15;1.02;;;10.10;99.90;;;;;;5007315;28;20123;-81
2024/01/03 03:51:05;;;;;;;3.30;1.27;;;10.10;99.90;;;;;;4990273;28;20077;-81
2024/01/03 03:53:32;;;;;;;4.10;1.27;;;10.10;99.90;;;;;;4997882;28;20057;-80
2024/01/03 03:55:59;;;;;;;2.30;0.90;;;10.10;99.90;;;;;;5007152;28;20113;-81
2024/01/03 03:58:26;;;;;;;4.70;1.40;;;10.10;99.90;;;;;;4991958;28;20053;-80
2024/01/03 04:00:54;;;;;;;2.28;0.80;;;10.10;99.90;;;;;;5025156;28;20049;-81
2024/01/03 04:03:21;;;;;;;1.83;0.65;;;10.10;99.90;;;;;;5033781;28;20524;-80
2024/01/03 04:05:48;;;;;;;2.05;0.85;;;10.10;99.90;;;;;;5028008;28;20140;-81
2024/01/03 04:08:15;;;;;;;2.92;1.35;;;10.20;99.90;;;;;;5027593;28;20509;-80
2024/01/03 04:10:43;;;;;;;2.90;0.82;;;10.20;99.90;;;;;;5027236;28;20045;-80
2024/01/03 04:13:10;;;;;;;2.88;0.80;;;10.20;99.90;;;;;;5020041;28;20049;-80
2024/01/03 04:15:37;;;;;;;1.92;0.60;;;10.20;99.90;;;;;;5024545;28;20064;-80
2024/01/03 04:18:05;;;;;;;1.98;0.85;;;10.30;99.90;;;;;;5008131;28;20184;-81
2024/01/03 04:20:32;;;;;;;3.20;0.98;;;10.30;99.90;;;;;;5013994;28;20061;-80
2024/01/03 04:22:59;;;;;;;3.75;1.75;;;10.30;99.90;;;;;;5023216;28;20045;-80
2024/01/03 04:25:26;;;;;;;3.47;0.90;;;10.40;99.90;;;;;;5024293;28;20799;-80
2024/01/03 04:27:53;;;;;;;2.47;0.80;;;10.40;99.90;;;;;;5024255;28;20061;-80
2024/01/03 04:30:20;;;;;;;3.90;1.00;;;10.40;99.90;;;;;;5024836;28;20050;-81
2024/01/03 04:32:47;;;;;;;3.88;1.35;;;10.50;99.90;;;;;;5007913;28;20141;-81
2024/01/03 04:35:14;;;;;;;3.88;1.00;;;10.50;99.90;;;;;;5007572;28;20045;-79
2024/01/03 04:37:41;;;;;;;2.45;0.80;;;10.50;99.90;;;;;;5006898;28;20057;-80
2024/01/03 04:40:09;;;;;;;1.50;0.65;;;10.50;99.90;;;;;;5024675;28;20140;-81
2024/01/03 04:42:37;;;;;;;3.08;1.27;;;10.50;99.90;;;;;;5007975;28;20383;-80
2024/01/03 04:45:04;;;;;;;3.83;1.10;;;10.50;99.90;;;;;;5023498;28;20057;-81
2024/01/03 04:47:33;;;;;;;3.30;1.05;;;10.50;99.90;;;;;;5007935;28;20045;-80
2024/01/03 04:50:00;;;;;;;2.17;0.60;;;10.50;99.90;;;;;;5007819;28;20061;-80
2024/01/03 04:52:27;;;;;;;2.30;0.90;;;10.50;99.90;;;;;;4991131;28;20041;-81
2024/01/03 04:54:54;;;;;;;3.38;1.65;;;10.50;99.90;;;;;;5007845;28;20060;-80
2024/01/03 04:57:21;;;;;;;1.67;0.80;;;10.50;99.90;;;;;;5007906;28;20042;-80
2024/01/03 04:59:49;;;;;;;1.20;0.60;;;10.50;99.90;;;;;;5024059;28;20050;-80
2024/01/03 05:02:16;;;;;;;3.47;1.10;;;10.50;99.90;;;;;;4991933;28;20064;-80
2024/01/03 05:04:45;;;;;;;2.38;0.85;;;10.50;99.90;;;;;;5023480;28;20049;-81
2024/01/03 05:07:12;;;;;;;1.48;0.60;;;10.50;99.90;;;;;;5007141;28;20049;-81
2024/01/03 05:09:39;;;;;;;2.63;0.77;;;10.50;99.90;;;;;;4991671;28;20062;-81
2024/01/03 05:12:06;;;;;;;1.75;0.77;;;10.50;99.90;;;;;;5024238;28;20049;-81
2024/01/03 05:14:33;;;;;;;2.10;0.75;;;10.50;99.90;;;;;;5007381;28;20065;-81
2024/01/03 05:17:00;;;;;;;1.70;0.93;;;10.50;99.90;;;;;;5023843;28;20088;-80
2024/01/03 05:19:27;;;;;;;2.45;1.00;;;10.50;99.90;;;;;;5024418;28;20080;-80
2024/01/03 05:21:54;;;;;;;2.55;0.80;;;10.50;99.90;;;;;;4991472;28;20129;-80
2024/01/03 05:24:22;;;;;;;1.27;0.68;;;10.50;99.90;;;;;;5027268;28;20737;-80
2024/01/03 05:26:49;;;;;;;3.10;0.85;;;10.50;99.90;;;;;;5031159;28;20048;-80
2024/01/03 05:29:16;;;;;;;3.22;0.75;;;10.50;99.90;;;;;;5030975;28;20083;-81
2024/01/03 05:31:43;;;;;;;2.47;0.90;;;10.50;99.90;;;;;;5014674;28;20052;-81
2024/01/03 05:34:10;;;;;;;2.47;0.70;;;10.40;99.90;;;;;;5014769;28;20051;-80
2024/01/03 05:36:37;;;;;;;4.32;1.40;;;10.40;99.90;;;;;;5030612;28;20057;-81
2024/01/03 05:39:04;;;;;;;3.75;1.08;;;10.30;99.90;;;;;;5014073;28;20044;-80
2024/01/03 05:41:31;;;;;;;2.03;0.85;;;10.20;99.90;;;;;;5031052;28;20057;-80
2024/01/03 05:43:58;;;;;;;4.05;1.52;;;10.20;99.90;;;;;;5030374;28;20072;-81
2024/01/03 05:46:25;;;;;;;2.17;0.90;;;10.20;99.90;;;;;;5030625;28;20052;-80
2024/01/03 05:48:52;;;;;;;2.63;0.93;;;10.20;99.90;;;;;;5002183;28;20421;-81
2024/01/03 05:51:20;;;;;;;5.28;1.33;;;10.10;99.90;;;;;;5008377;28;20525;-80
2024/01/03 05:53:48;;;;;;;1.92;0.88;;;10.10;99.90;;;;;;5002988;28;20080;-81
2024/01/03 05:56:16;;;;;;;2.58;0.90;;;10.00;99.90;;;;;;5012529;28;20491;-81
2024/01/03 05:58:44;;;;;;;3.95;1.08;;;10.00;99.90;;;;;;5028177;28;20063;-81
2024/01/03 06:01:12;;;;;;;2.33;1.05;;;10.00;99.90;;;;;;5028113;28;20051;-81
2024/01/03 06:03:39;;;;;;;1.40;0.80;;;10.00;99.90;;;;;;5027540;28;20048;-80
2024/01/03 06:06:07;;;;;;;2.42;0.90;;;10.00;99.90;;;;;;4988793;28;20053;-80
2024/01/03 06:08:35;;;;;;;3.13;0.95;;;9.90;99.90;;;;;;5005986;28;20483;-81
2024/01/03 06:11:02;;;;;;;3.92;1.30;;;9.90;99.90;;;;;;5008368;28;20057;-81
2024/01/03 06:13:29;;;;;;;4.07;1.00;;;9.90;99.90;;;;;;5027085;28;20069;-81
2024/01/03 06:15:56;;;;;;;2.40;0.95;;;9.90;99.90;;;;;;5011770;28;20324;-81
2024/01/03 06:18:23;;;;;;;3.80;1.00;;;9.90;99.90;;;;;;5043272;28;20057;-80
2024/01/03 06:20:50;;;;;;;3.03;0.95;;;9.90;99.90;;;;;;4992009;28;20125;-80
2024/01/03 06:23:17;;;;;;;3.92;0.90;;;9.80;99.90;;;;;;5006230;28;20060;-81
2024/01/03 06:25:44;;;;;;;3.47;1.25;;;9.80;99.90;;;;;;5005295;28;20824;-80
2024/01/03 06:28:12;;;;;;;3.90;1.13;;;9.80;99.90;;;;;;5020835;28;20054;-80
2024/01/03 06:30:40;;;;;;;2.55;0.90;;;9.80;99.90;;;;;;5007496;28;20746;-80
2024/01/03 06:33:07;;;;;;;3.08;0.77;;;9.80;99.90;;;;;;5031407;28;20050;-80
2024/01/03 06:35:34;;;;;;;1.83;0.85;;;9.80;99.90;;;;;;4991128;28;20045;-80
2024/01/03 06:38:03;;;;;;;2.05;1.10;;;9.80;99.90;;;;;;5006706;28;20053;-80
2024/01/03 06:40:32;;;;;;;1.70;0.80;;;9.70;99.90;;;;;;5023760;28;20108;-80
2024/01/03 06:42:59;;;;;;;1.33;0.52;;;9.70;99.90;;;;;;5007491;28;20175;-80
2024/01/03 06:45:26;;;;;;;2.92;0.80;;;9.70;99.90;;;;;;4992020;28;20054;-80
2024/01/03 06:47:53;;;;;;;2.92;1.00;;;9.60;99.90;;;;;;4991258;28;20068;-81
2024/01/03 06:50:20;;;;;;;2.92;0.82;;;9.60;99.90;;;;;;5023370;28;20617;-81
2024/01/03 06:52:47;;;;;;;2.60;0.95;;;9.60;99.90;;;;;;5010953;28;20517;-81
2024/01/03 06:55:14;;;;;;;2.60;0.82;;;9.60;99.90;;;;;;5007580;28;20058;-80
2024/01/03 06:57:42;;;;;;;3.60;0.75;;;9.60;99.90;;;;;;5007576;28;20160;-81
2024/01/03 07:00:09;;;;;;;3.72;1.30;;;9.60;99.90;;;;;;4990600;28;20149;-80
2024/01/03 07:02:36;;;;;;;2.53;0.90;;;9.60;99.90;;;;;;4990962;28;20045;-80
2024/01/03 07:05:05;;;;;;;4.68;1.10;;;9.60;99.90;;;;;;5003629;28;20690;-80
2024/01/03 07:07:32;;;;;;;1.98;0.85;;;9.60;99.90;;;;;;5005461;28;20055;-81
2024/01/03 07:09:59;;;;;;;4.38;1.00;;;9.60;99.90;;;;;;5006623;28;20099;-81
2024/01/03 07:12:26;;;;;;;2.63;0.85;;;9.60;99.90;;;;;;4992240;28;20354;-81
2024/01/03 07:14:53;;;;;;;2.67;1.00;;;9.60;99.90;;;;;;5006030;28;20384;-81
2024/01/03 07:17:20;;;;;;;1.38;0.70;;;9.60;99.90;;;;;;5023587;28;20052;-81
2024/01/03 07:19:47;;;;;;;1.80;0.70;;;9.50;99.90;;;;;;5022933;28;20374;-80
2024/01/03 07:22:14;;;;;;;2.00;0.93;;;9.50;99.90;;;;;;5018982;28;20049;-80
2024/01/03 07:24:42;;;;;;;2.85;1.00;;;9.50;99.90;;;;;;5023514;28;20052;-81
2024/01/03 07:27:09;;;;;;;3.90;1.42;;;9.50;99.90;;;;;;5042973;28;20056;-81
2024/01/03 07:29:36;;;;;;;3.63;1.23;;;9.50;99.90;;;;;;5026138;28;20114;-81
2024/01/03 07:32:04;;;;;;;2.45;0.80;;;9.50;99.90;;;;;;5037399;28;20513;-81
2024/01/03 07:34:31;;;;;;;5.43;1.10;;;9.50;99.90;;;;;;4987478;28;20049;-81
2024/01/03 07:36:58;;;;;;;5.00;1.15;;;9.50;99.90;;;;;;5004327;28;20060;-81
2024/01/03 07:39:26;;;;;;;3.00;0.95;;;9.50;99.90;;;;;;4989963;28;20052;-81
2024/01/03 07:41:53;;;;;;;1.27;0.63;;;9.50;99.90;;;;;;5004168;28;20045;-81
2024/01/03 07:44:20;;;;;;;2.28;1.23;;;9.40;99.90;;;;;;5016981;28;20049;-80
2024/01/03 07:46:47;;;;;;;3.67;1.30;;;9.40;99.90;;;;;;5024003;28;20067;-80
2024/01/03 07:49:14;;;;;;;1.60;0.65;;;9.40;99.90;;;;;;5009531;28;20395;-81
2024/01/03 07:51:41;;;;;;;1.40;0.70;;;9.30;99.90;;;;;;5025616;28;20068;-80
2024/01/03 07:54:09;;;;;;;1.60;0.63;;;9.30;99.90;;;;;;5025292;28;20136;-81
2024/01/03 07:56:37;;;;;;;3.28;0.93;;;9.30;99.90;;;;;;5010809;28;21027;-81
2024/01/03 07:59:04;;;;;;;2.58;1.20;;;9.30;99.90;;;;;;5025731;28;20159;-81
2024/01/03 08:01:32;;;;;;;1.75;0.73;;;9.30;99.90;;;;;;5024693;28;20052;-81
2024/01/03 08:03:59;;;;;;;2.47;0.70;;;9.30;99.90;;;;;;5031890;28;20102;-81
2024/01/03 08:06:26;;;;;;;2.72;1.05;;;9.30;99.90;;;;;;5028564;28;20053;-81
2024/01/03 08:08:53;;;;;;;2.10;1.00;;;9.30;99.90;;;;;;4997667;28;20049;-81
2024/01/03 08:11:20;;;;;;;3.42;1.00;;;9.30;99.90;;;;;;4998757;28;20133;-81
2024/01/03 08:13:47;;;;;;;2.83;1.08;;;9.30;99.90;;;;;;5015797;28;20624;-88
2024/01/03 08:16:15;;;;;;;2.60;1.50;;;9.30;99.90;;;;;;5002179;28;20139;-77
2024/01/03 08:18:44;;;;;;;2.50;0.80;;;9.30;99.90;;;;;;5017269;28;20049;-77
2024/01/03 08:21:11;;;;;;;1.50;0.50;;;9.30;99.90;;;;;;5015377;28;20869;-77
2024/01/03 08:23:40;;;;;;;1.60;0.68;;;9.30;99.90;;;;;;4997985;28;20053;-77
2024/01/03 08:26:11;;;;;;;3.22;1.10;;;9.30;99.90;;;;;;5018836;28;20048;-77
2024/01/03 08:28:40;;;;;;;2.63;1.15;;;9.30;99.90;;;;;;5015243;28;20636;-77
2024/01/03 08:31:18;;;;;;;1.88;0.90;;;9.30;99.90;;;;;;5019096;28;20489;-78
2024/01/03 08:33:48;;;;;;;3.50;1.00;;;9.30;99.90;;;;;;4999667;28;20049;-78
2024/01/03 08:36:16;;;;;;;2.20;0.93;;;9.30;99.90;;;;;;5016228;28;20430;-77
2024/01/03 08:38:43;;;;;;;1.88;1.10;;;9.30;99.90;;;;;;5016182;28;20050;-78
2024/01/03 08:41:17;;;;;;;4.78;1.48;;;9.40;99.90;;;;;;5032466;28;20061;-78
2024/01/03 08:43:44;;;;;;;4.38;1.20;;;9.40;99.90;;;;;;4999828;28;20045;-77
2024/01/03 08:46:12;;;;;;;4.43;1.25;;;9.50;99.90;;;;;;5000641;28;20587;-77
2024/01/03 08:48:42;;;;;;;3.35;0.80;;;9.50;99.90;;;;;;4990908;28;20064;-78
2024/01/03 08:51:14;;;;;;;1.80;0.70;;;9.50;99.90;;;;;;5003641;28;20461;-78
2024/01/03 08:53:41;;;;;;;2.42;1.25;;;9.50;99.90;;;;;;4998756;28;20127;-77
2024/01/03 08:56:15;;;;;;;5.10;1.30;;;9.60;99.90;;;;;;4998185;28;20108;-77
2024/01/03 08:58:43;;;;;;;4.05;1.42;;;9.60;99.90;;;;;;5024585;28;20132;-77
2024/01/03 09:01:20;;;;;;;3.20;1.17;;;9.60;99.90;;;;;;5007948;28;20575;-77
2024/01/03 09:03:47;;;;;;;4.53;1.20;;;9.70;99.90;;;;;;4997917;28;20064;-77
2024/01/03 09:06:17;;;;;;;4.03;1.25;;;9.70;99.90;;;;;;5013291;28;20049;-77
2024/01/03 09:08:46;;;;;;;2.42;1.20;;;9.70;99.90;;;;;;5018416;28;20049;-78
2024/01/03 09:11:13;;;;;;;2.00;0.90;;;9.70;99.90;;;;;;5025651;28;20103;-77
2024/01/03 09:13:41;;;;;;;2.45;1.05;;;9.70;99.90;;;;;;5039791;28;20040;-88
2024/01/03 09:16:11;;;;;;;2.72;1.15;;;9.70;99.90;;;;;;5014820;28;20049;-95
2024/01/03 09:18:39;;;;;;;3.17;1.10;;;9.80;99.90;;;;;;5012980;28;20119;-82
2024/01/03 09:21:06;;;;;;;3.92;1.48;;;9.80;99.90;;;;;;5003076;28;20053;-83
2024/01/03 09:23:33;;;;;;;3.25;1.60;;;9.80;99.90;;;;;;5007968;28;20091;-80
2024/01/03 09:26:06;;;;;;;4.78;1.83;;;9.80;99.90;;;;;;5033288;28;20053;-79
2024/01/03 09:28:34;;;;;;;4.10;1.52;;;9.90;99.90;;;;;;5021819;28;20076;-80
2024/01/03 09:31:02;;;;;;;4.03;1.40;;;9.90;99.90;;;;;;4995440;28;20104;-80
2024/01/03 09:33:29;;;;;;;3.85;1.60;;;9.90;99.90;;;;;;5024605;28;20068;-80
2024/01/03 09:35:57;;;;;;;3.08;1.48;;;9.90;99.90;;;;;;5026222;28;20467;-81
2024/01/03 09:38:24;;;;;;;5.10;1.73;;;9.90;99.90;;;;;;5005651;28;20605;-82
2024/01/03 09:40:53;;;;;;;4.05;1.40;;;9.90;99.90;;;;;;4998241;28;20049;-82
2024/01/03 09:43:20;;;;;;;3.97;1.60;;;10.00;99.90;;;;;;4993262;28;20184;-81
2024/01/03 09:45:48;;;;;;;3.17;1.23;;;10.00;99.90;;;;;;5002127;28;20049;-81
2024/01/03 09:48:16;;;;;;;4.32;1.10;;;10.10;99.90;;;;;;5035568;28;20117;-82
2024/01/03 09:50:45;;;;;;;3.47;2.00;;;10.10;99.90;;;;;;5018687;28;20048;-82
2024/01/03 09:53:12;;;;;;;2.72;1.20;;;10.20;99.90;;;;;;5034550;28;20095;-82
2024/01/03 09:55:39;;;;;;;3.92;1.52;;;10.30;99.90;;;;;;5037519;28;20099;-81
2024/01/03 09:58:06;;;;;;;5.72;1.70;;;10.40;99.90;;;;;;5002182;28;20130;-82
2024/01/03 10:00:34;;;;;;;5.72;2.20;;;10.50;99.90;;;;;;5000329;28;20641;-81
2024/01/03 10:03:05;;;;;;;3.38;1.38;;;10.60;99.90;;;;;;5038873;28;20053;-83
2024/01/03 10:05:32;;;;;;;3.58;1.45;;;10.60;99.90;;;;;;5013505;28;20600;-82
2024/01/03 10:08:01;;;;;;;2.63;1.30;;;10.70;99.90;;;;;;4997222;28;20584;-82
2024/01/03 10:10:30;;;;;;;3.47;1.45;;;10.70;99.90;;;;;;5030935;28;20503;-82
2024/01/03 10:12:57;;;;;;;2.67;1.13;;;10.70;99.90;;;;;;5026990;28;20052;-82
2024/01/03 10:15:24;;;;;;;4.00;1.73;;;10.80;99.90;;;;;;5008763;28;20446;-83
2024/01/03 10:17:55;;;;;;;7.10;2.33;;;10.90;99.90;;;;;;5020468;28;20045;-82
2024/01/03 10:20:25;;;;;;;3.60;1.60;;;11.00;99.90;;;;;;5013117;28;20049;-81
2024/01/03 10:23:05;;;;;;;5.15;2.63;;;11.10;99.90;;;;;;5001916;28;20538;-81
2024/01/03 10:25:32;;;;;;;5.65;2.50;;;11.20;99.90;;;;;;5029106;28;20053;-81
2024/01/03 10:28:01;;;;;;;7.47;2.50;;;11.20;99.90;;;;;;4994972;28;20061;-81
2024/01/03 10:30:28;;;;;;;8.20;2.47;;;11.30;99.90;;;;;;5001505;28;20056;-83
2024/01/03 10:32:58;;;;;;;5.38;2.22;;;11.40;99.90;;;;;;5027263;28;20079;-81
2024/01/03 10:35:29;;;;;;;6.22;3.28;;;11.40;99.90;;;;;;5030756;28;20073;-81
2024/01/03 10:37:59;;;;;;;7.65;3.75;;;11.40;99.90;;;;;;5018600;28;20045;-82
2024/01/03 10:40:33;;;;;;;8.13;3.95;;;11.40;99.90;;;;;;5020669;28;20041;-83
2024/01/03 10:43:01;;;;;;;8.57;3.40;;;11.40;99.90;;;;;;5020016;28;20053;-82
2024/01/03 10:45:29;;;;;;;7.30;2.70;;;11.40;99.90;;;;;;5008641;28;20084;-83
2024/01/03 10:47:57;;;;;;;6.82;2.15;;;11.40;99.90;;;;;;5020034;28;20098;-83
2024/01/03 10:50:25;;;;;;;3.40;1.27;;;11.30;99.90;;;;;;5019190;28;20042;-82
2024/01/03 10:52:58;;;;;;;6.65;2.17;;;11.30;99.90;;;;;;5016398;28;20652;-84
2024/01/03 10:55:37;;;;;;;3.22;1.30;;;11.20;99.90;;;;;;5024742;28;20057;-86
2024/01/03 10:58:12;;;;;;;6.25;1.88;;;11.10;99.90;;;;;;4994847;28;20045;-77
2024/01/03 11:00:48;;;;;;;4.40;1.52;;;11.10;99.90;;;;;;4998727;28;20132;-78
2024/01/03 11:03:28;;;;;;;4.95;1.25;;;11.10;99.90;;;;;;5035277;28;20076;-78
2024/01/03 11:06:04;;;;;;;4.78;1.60;;;11.00;99.90;;;;;;5039445;28;20053;-78
2024/01/03 11:08:36;;;;;;;3.10;1.33;;;11.10;99.90;;;;;;5042655;28;20419;-78
2024/01/03 11:11:03;;;;;;;2.95;1.05;;;11.10;99.90;;;;;;5010575;28;20057;-78
2024/01/03 11:13:32;;;;;;;2.47;0.98;;;11.20;99.90;;;;;;5013563;28;20053;-79
2024/01/03 11:16:00;;;;;;;2.55;1.15;;;11.30;99.90;;;;;;4991224;28;20057;-78
2024/01/03 11:18:42;;;;;;;2.45;1.08;;;11.30;99.90;;;;;;4990322;28;20561;-79
2024/01/03 11:21:27;;;;;;;2.78;0.85;;;11.40;99.90;;;;;;5023714;28;20107;-79
2024/01/03 11:23:53;;;;;;;4.45;1.38;;;11.50;99.90;;;;;;5022324;28;20053;-80
2024/01/03 11:27:07;;;;;;;2.17;1.13;;;11.60;99.90;;;;;;5023081;28;20439;-79
2024/01/03 11:29:48;;;;;;;2.80;1.08;;;11.70;99.90;;;;;;5018996;28;20053;-78
2024/01/03 11:32:26;;;;;;;2.63;1.30;;;11.80;99.90;;;;;;5022378;28;20133;-79
2024/01/03 11:34:53;;;;;;;2.40;1.13;;;12.00;99.90;;;;;;5006182;28;20110;-79
2024/01/03 11:37:24;;;;;;;4.90;1.08;;;12.10;99.90;;;;;;4990069;28;20055;-79
2024/01/03 11:39:53;;;;;;;2.45;0.90;;;12.30;99.90;;;;;;5022626;28;20052;-80
2024/01/03 11:42:28;;;;;;;2.30;1.42;;;12.40;99.90;;;;;;4990476;28;20077;-80
2024/01/03 11:45:14;;;;;;;5.00;1.15;;;12.40;99.90;;;;;;5006060;28;20049;-79
2024/01/03 11:47:43;;;;;;;3.50;1.27;;;12.30;99.90;;;;;;5006306;28;20545;-80
2024/01/03 11:50:12;;;;;;;2.65;0.98;;;12.30;99.90;;;;;;4989589;28;20049;-79
2024/01/03 11:52:40;;;;;;;4.25;1.75;;;12.30;99.90;;;;;;5005548;28;20045;-79
2024/01/03 11:55:10;;;;;;;5.18;1.55;;;12.30;99.90;;;;;;4989549;28;20167;-80
2024/01/03 11:57:42;;;;;;;2.35;1.10;;;12.30;99.90;;;;;;4990875;28;20049;-81
2024/01/03 12:00:13;;;;;;;6.38;1.73;;;12.30;99.90;;;;;;5005904;28;20056;-80
2024/01/03 12:02:54;;;;;;;5.18;1.48;;;12.30;99.90;;;;;;4989671;28;20695;-79
2024/01/03 12:05:23;;;;;;;2.42;1.20;;;12.30;99.90;;;;;;5005713;28;20057;-80
2024/01/03 12:07:52;;;;;;;2.15;1.00;;;12.50;99.90;;;;;;4988972;28;20072;-80
2024/01/03 12:10:19;;;;;;;2.92;1.38;;;12.70;99.90;;;;;;5015314;28;20167;-80
2024/01/03 12:12:46;;;;;;;2.90;1.23;;;12.80;99.90;;;;;;5023980;28;20061;-80
2024/01/03 12:15:28;;;;;;;3.67;1.20;;;12.90;99.90;;;;;;5022233;28;20094;-80
2024/01/03 12:18:14;;;;;;;2.22;1.20;;;12.90;99.90;;;;;;5006133;28;20360;-80
2024/01/03 12:20:42;;;;;;;3.33;1.55;;;13.00;99.90;;;;;;5026289;28;20068;-79
2024/01/03 12:23:10;;;;;;;4.97;2.15;;;13.10;99.90;;;;;;5038774;28;20053;-86
2024/01/03 12:25:39;;;;;;;4.10;1.42;;;13.20;99.90;;;;;;5002234;28;20049;-82
2024/01/03 12:28:06;;;;;;;10.25;2.65;;;13.20;99.90;;;;;;4995843;28;20088;-81
2024/01/03 12:30:33;;;;;;;4.95;1.83;;;13.00;99.90;;;;;;5009083;28;20049;-80
2024/01/03 12:33:13;;;;;;;3.78;1.50;;;12.80;99.90;;;;;;5005016;28;20494;-81
2024/01/03 12:35:41;;;;;;;6.63;1.63;;;12.60;99.90;;;;;;5038400;28;20048;-80
2024/01/03 12:38:09;;;;;;;4.70;1.63;;;12.40;99.90;;;;;;5012451;28;20521;-81
2024/01/03 12:40:37;;;;;;;2.88;1.20;;;12.10;99.90;;;;;;4989322;28;20065;-81
2024/01/03 12:43:05;;;;;;;3.00;1.10;;;11.80;99.90;;;;;;5009402;28;20053;-87
2024/01/03 12:45:32;;;;;;;2.40;1.25;;;11.30;36.30;;;;;;5010898;28;20192;-87
2024/01/03 12:48:01;;;;;;;2.85;1.02;;;11.10;1.00;;;;;;5033758;28;20045;-87
2024/01/03 12:50:30;;;;;;;3.85;1.33;;;10.90;99.90;;;;;;5021084;28;20321;-87
2024/01/03 12:52:58;;;;;;;2.17;0.98;;;10.90;1.00;;;;;;5015799;28;20057;-87
2024/01/03 12:55:26;;;;;;;3.47;1.50;;;10.80;99.90;;;;;;5036666;28;20148;-88
2024/01/03 12:57:56;;;;;;;3.05;1.20;;;10.70;1.00;;;;;;5048492;28;20216;-89